Time;durP1;ratioP1;P1;durP2;ratioP2;P2;SDS_P1;SDS_P2;PMS_P1;PMS_P2;Temp;Humidity;BMP_temperature;BMP_pressure;BME280_temperature;BME280_humidity;BME280_pressure;Samples;Min_cycle;Max_cycle;Signal;HPM_P1;HPM_P2
2023/10/25 00:02:02;;;;;;;;;2.00;2.00;;;;;15.11;100.00;99392.25;4966989;28;45448;-73
2023/10/25 00:04:27;;;;;;;;;3.33;2.33;;;;;15.04;100.00;99374.28;4967659;28;45305;-70
2023/10/25 00:06:53;;;;;;;;;3.00;2.00;;;;;15.02;100.00;99371.81;4969790;28;47035;-73
2023/10/25 00:09:18;;;;;;;;;5.33;2.00;;;;;15.11;100.00;99383.16;4974544;28;45438;-73
2023/10/25 00:11:43;;;;;;;;;4.67;1.33;;;;;15.07;100.00;99382.03;4969538;28;45461;-71
2023/10/25 00:14:09;;;;;;;;;3.00;2.00;;;;;15.11;100.00;99385.91;4973754;28;45699;-72
2023/10/25 00:16:34;;;;;;;;;1.00;1.00;;;;;14.99;100.00;99373.19;4983082;28;46386;-70
2023/10/25 00:19:00;;;;;;;;;2.00;2.00;;;;;14.94;100.00;99367.66;4974372;28;45545;-72
2023/10/25 00:21:25;;;;;;;;;3.67;2.00;;;;;14.87;100.00;99364.31;4972859;28;46066;-72
2023/10/25 00:23:51;;;;;;;;;2.00;2.00;;;;;14.77;100.00;99370.63;4967074;28;45811;-72
2023/10/25 00:26:17;;;;;;;;;2.00;2.00;;;;;14.70;100.00;99370.06;4974820;28;45530;-70
2023/10/25 00:28:42;;;;;;;;;1.00;1.00;;;;;14.72;100.00;99358.75;4964680;28;45432;-72
2023/10/25 00:31:07;;;;;;;;;1.00;1.00;;;;;14.74;100.00;99365.63;4964873;28;46074;-71
2023/10/25 00:33:33;;;;;;;;;1.00;1.00;;;;;14.58;100.00;99367.50;4973088;28;45400;-71
2023/10/25 00:35:58;;;;;;;;;2.67;1.67;;;;;14.40;100.00;99365.19;4972820;28;45714;-73
2023/10/25 00:38:24;;;;;;;;;1.33;1.00;;;;;14.30;100.00;99363.22;4973721;28;45364;-72
2023/10/25 00:40:50;;;;;;;;;3.00;3.00;;;;;14.11;100.00;99360.06;4968212;28;45514;-72
2023/10/25 00:43:20;;;;;;;;;1.33;1.33;;;;;13.98;100.00;99352.28;4974141;28;45325;-72
2023/10/25 00:46:12;;;;;;;;;0.00;0.00;;;;;13.94;100.00;99347.28;4973732;28;46042;-71
2023/10/25 00:48:43;;;;;;;;;1.33;1.33;;;;;13.74;100.00;99327.84;4973481;28;45876;-71
2023/10/25 00:51:10;;;;;;;;;3.00;1.67;;;;;13.51;100.00;99323.56;4974851;28;45702;-77
2023/10/25 00:53:40;;;;;;;;;1.67;1.00;;;;;13.29;100.00;99327.19;4956477;28;45619;-78
2023/10/25 00:56:09;;;;;;;;;1.00;1.00;;;;;13.36;100.00;99319.59;4965173;28;46056;-71
2023/10/25 00:58:35;;;;;;;;;1.00;1.00;;;;;13.43;100.00;99313.88;4973665;28;45491;-72
2023/10/25 01:01:01;;;;;;;;;3.33;1.00;;;;;13.26;100.00;99275.41;4957191;28;45362;-72
2023/10/25 01:03:27;;;;;;;;;1.00;1.00;;;;;13.18;100.00;99296.00;4973855;28;45872;-72
2023/10/25 01:06:03;;;;;;;;;1.67;1.67;;;;;12.99;100.00;99284.53;4975907;28;45417;-79
2023/10/25 01:08:51;;;;;;;;;0.67;0.67;;;;;12.92;100.00;99277.59;4971242;28;45754;-78
2023/10/25 01:11:16;;;;;;;;;4.00;2.67;;;;;12.88;100.00;99249.78;4967450;28;45439;-79
2023/10/25 01:13:42;;;;;;;;;2.33;1.00;;;;;13.08;100.00;99273.88;4957388;28;45460;-78
2023/10/25 01:16:07;;;;;;;;;1.00;1.00;;;;;13.07;100.00;99255.75;4972755;28;46573;-79
2023/10/25 01:18:32;;;;;;;;;0.00;0.00;;;;;12.97;100.00;99264.72;4980353;28;46000;-79
2023/10/25 01:20:58;;;;;;;;;0.33;0.33;;;;;12.91;100.00;99259.44;4980047;28;45641;-79
2023/10/25 01:23:23;;;;;;;;;0.67;0.67;;;;;12.94;100.00;99247.91;4965779;28;45962;-79
2023/10/25 01:25:49;;;;;;;;;2.67;1.67;;;;;12.88;100.00;99236.03;4957633;28;45445;-77
2023/10/25 01:28:14;;;;;;;;;3.33;2.00;;;;;12.82;100.00;99237.88;4955887;28;46069;-78
2023/10/25 01:30:40;;;;;;;;;0.33;0.33;;;;;12.83;100.00;99227.72;4957209;28;45471;-77
2023/10/25 01:33:05;;;;;;;;;2.67;1.00;;;;;12.79;100.00;99215.59;4970020;28;45418;-77
2023/10/25 01:35:31;;;;;;;;;2.67;0.67;;;;;12.79;100.00;99193.59;4970212;28;45780;-81
2023/10/25 01:37:57;;;;;;;;;3.33;1.33;;;;;12.79;100.00;99190.81;4968301;28;45079;-71
2023/10/25 01:40:22;;;;;;;;;1.67;1.67;;;;;12.74;100.00;99169.59;4971431;28;45832;-70
2023/10/25 01:42:54;;;;;;;;;0.00;0.00;;;;;12.68;100.00;99176.97;4973476;28;45597;-71
2023/10/25 01:45:23;;;;;;;;;0.67;0.67;;;;;12.58;100.00;99165.06;4956105;28;46057;-72
2023/10/25 01:47:49;;;;;;;;;4.33;2.00;;;;;12.56;100.00;99158.97;4973601;28;45599;-70
2023/10/25 01:50:15;;;;;;;;;3.33;3.33;;;;;12.56;100.00;99150.72;4982756;28;45669;-72
2023/10/25 01:52:40;;;;;;;;;1.67;1.67;;;;;12.52;100.00;99140.25;4972613;28;46552;-72
2023/10/25 01:55:06;;;;;;;;;1.33;1.33;;;;;12.73;100.00;99134.94;4971817;28;45832;-72
2023/10/25 01:57:31;;;;;;;;;1.33;1.33;;;;;12.69;100.00;99128.28;4962140;28;45701;-79
2023/10/25 01:59:56;;;;;;;;;3.33;1.33;;;;;12.68;100.00;99123.91;4965591;28;45754;-72
2023/10/25 02:02:22;;;;;;;;;1.67;1.67;;;;;12.70;100.00;99121.72;4956395;28;45881;-70
2023/10/25 02:04:47;;;;;;;;;1.33;0.67;;;;;12.72;100.00;99122.25;4960981;28;45792;-72
2023/10/25 02:07:13;;;;;;;;;1.33;1.33;;;;;12.76;100.00;99117.91;4967818;28;45463;-71
2023/10/25 02:09:38;;;;;;;;;1.33;1.33;;;;;12.78;100.00;99104.69;4979025;28;45642;-78
2023/10/25 02:12:04;;;;;;;;;3.00;2.00;;;;;12.80;100.00;99096.19;4978800;28;45440;-79
2023/10/25 02:14:31;;;;;;;;;0.67;0.67;;;;;12.85;100.00;99093.47;4971150;28;46142;-78
2023/10/25 02:16:57;;;;;;;;;0.67;0.67;;;;;12.86;100.00;99076.72;4968815;28;45472;-69
2023/10/25 02:19:22;;;;;;;;;2.00;1.67;;;;;13.07;100.00;99068.59;4972538;28;45678;-71
2023/10/25 02:21:48;;;;;;;;;2.67;2.67;;;;;13.06;100.00;99044.91;4972085;28;45709;-70
2023/10/25 02:24:15;;;;;;;;;3.00;1.33;;;;;13.32;100.00;99056.03;4951720;28;47922;-72
2023/10/25 02:26:44;;;;;;;;;1.33;1.33;;;;;13.16;100.00;99033.94;4967678;28;45756;-70
2023/10/25 02:29:09;;;;;;;;;1.67;1.67;;;;;13.41;100.00;99047.03;4970803;28;45461;-72
2023/10/25 02:31:38;;;;;;;;;2.00;2.00;;;;;13.54;100.00;99034.66;4957042;28;45659;-71
2023/10/25 02:34:04;;;;;;;;;2.33;2.33;;;;;13.60;100.00;99013.47;4973903;28;45419;-71
2023/10/25 02:36:33;;;;;;;;;1.00;1.00;;;;;13.60;100.00;99006.03;4973057;28;45448;-71
2023/10/25 02:38:58;;;;;;;;;2.00;2.00;;;;;13.74;100.00;98994.47;4972924;28;45468;-71
2023/10/25 02:41:23;;;;;;;;;1.67;0.67;;;;;13.50;100.00;98996.91;4972611;28;45360;-71
2023/10/25 02:43:51;;;;;;;;;0.67;0.67;;;;;13.47;100.00;98973.50;4972900;28;45904;-72
2023/10/25 02:46:17;;;;;;;;;2.00;0.00;;;;;13.49;100.00;98976.81;4972487;28;45493;-72
2023/10/25 02:48:42;;;;;;;;;1.67;1.67;;;;;13.51;100.00;98969.09;4973376;28;45654;-72
2023/10/25 02:51:08;;;;;;;;;3.00;1.33;;;;;13.57;100.00;98962.50;4971039;28;46835;-72
2023/10/25 02:53:34;;;;;;;;;1.33;0.67;;;;;13.64;100.00;98969.66;4980328;28;45722;-71
2023/10/25 02:56:01;;;;;;;;;1.33;1.33;;;;;13.70;100.00;98957.59;4972308;28;45383;-70
2023/10/25 02:58:27;;;;;;;;;0.67;0.67;;;;;13.81;100.00;98950.97;4973555;28;45860;-70
2023/10/25 03:00:52;;;;;;;;;2.00;1.00;;;;;13.83;100.00;98959.81;4951997;28;45813;-70
2023/10/25 03:03:18;;;;;;;;;0.67;0.67;;;;;13.85;100.00;98946.56;4951658;28;46482;-77
2023/10/25 03:05:43;;;;;;;;;1.00;1.00;;;;;13.95;100.00;98938.31;4957824;28;45792;-77
2023/10/25 03:08:09;;;;;;;;;0.00;0.00;;;;;13.97;100.00;98924.25;4940979;28;45956;-75
2023/10/25 03:10:34;;;;;;;;;1.67;1.00;;;;;13.98;100.00;98923.13;4948603;28;45431;-72
2023/10/25 03:13:00;;;;;;;;;4.00;1.00;;;;;14.14;100.00;98934.97;4951838;28;45301;-71
2023/10/25 03:15:25;;;;;;;;;1.00;1.00;;;;;14.22;100.00;98912.38;4967397;28;45354;-70
2023/10/25 03:17:50;;;;;;;;;1.00;0.67;;;;;14.08;100.00;98911.28;4949821;28;45780;-70
2023/10/25 03:20:16;;;;;;;;;1.00;1.00;;;;;14.04;100.00;98908.25;4952082;28;45804;-70
2023/10/25 03:22:41;;;;;;;;;3.00;1.67;;;;;14.01;100.00;98894.19;4959402;28;46764;-71
2023/10/25 03:25:07;;;;;;;;;0.00;0.00;;;;;13.96;100.00;98897.78;4945026;28;45779;-75
2023/10/25 03:27:33;;;;;;;;;2.33;1.00;;;;;13.98;100.00;98905.78;4951442;28;45775;-77
2023/10/25 03:29:58;;;;;;;;;1.33;1.33;;;;;13.98;100.00;98900.25;4951795;28;46068;-76
2023/10/25 03:32:25;;;;;;;;;1.00;1.00;;;;;13.98;100.00;98900.25;4950779;28;46231;-76
2023/10/25 03:34:51;;;;;;;;;2.00;1.00;;;;;14.01;100.00;98891.44;4950599;28;45939;-75
2023/10/25 03:37:16;;;;;;;;;4.00;2.33;;;;;14.03;100.00;98880.97;4932790;28;45443;-75
2023/10/25 03:39:42;;;;;;;;;0.33;0.00;;;;;14.03;100.00;98881.78;4949899;28;45843;-76
2023/10/25 03:42:07;;;;;;;;;2.00;2.00;;;;;14.04;100.00;98871.59;4943076;28;46410;-70
2023/10/25 03:44:32;;;;;;;;;1.00;1.00;;;;;14.11;100.00;98859.16;4952178;28;45886;-72
2023/10/25 03:46:58;;;;;;;;;1.00;1.00;;;;;14.16;100.00;98857.50;4940023;28;45781;-71
2023/10/25 03:49:24;;;;;;;;;3.00;3.00;;;;;14.16;100.00;98852.00;4941462;28;46011;-71
2023/10/25 03:51:50;;;;;;;;;1.00;1.00;;;;;14.16;100.00;98838.22;4955366;28;45847;-72
2023/10/25 03:54:15;;;;;;;;;1.00;1.00;;;;;14.11;100.00;98822.50;4955366;28;45606;-72
2023/10/25 03:56:42;;;;;;;;;1.67;1.00;;;;;14.21;100.00;98833.50;4948292;28;45730;-72
2023/10/25 03:59:08;;;;;;;;;1.00;1.00;;;;;14.14;100.00;98824.72;4954164;28;46476;-72
2023/10/25 04:01:33;;;;;;;;;1.00;1.00;;;;;14.04;100.00;98827.47;4940323;28;46755;-71
2023/10/25 04:03:59;;;;;;;;;2.00;2.00;;;;;14.06;100.00;98817.03;4952871;28;45755;-71
2023/10/25 04:06:24;;;;;;;;;1.00;1.00;;;;;14.05;100.00;98815.38;4949797;28;45393;-71
2023/10/25 04:08:50;;;;;;;;;0.00;0.00;;;;;14.06;100.00;98820.59;4951075;28;45375;-70
2023/10/25 04:11:16;;;;;;;;;1.33;1.33;;;;;14.03;100.00;98792.78;4955166;28;46195;-72
2023/10/25 04:13:41;;;;;;;;;1.33;0.00;;;;;13.98;100.00;98790.03;4954286;28;45379;-71
2023/10/25 04:16:09;;;;;;;;;1.00;0.00;;;;;14.08;100.00;98790.00;4952156;28;45805;-72
2023/10/25 04:18:35;;;;;;;;;3.00;1.33;;;;;14.07;100.00;98789.19;4939198;28;45831;-73
2023/10/25 04:21:01;;;;;;;;;1.00;1.00;;;;;14.14;100.00;98797.13;4954031;28;45759;-71
2023/10/25 04:23:30;;;;;;;;;2.33;1.00;;;;;14.12;100.00;98800.19;4966315;28;45396;-71
2023/10/25 04:26:06;;;;;;;;;1.00;1.00;;;;;14.12;100.00;98791.09;4944955;28;45765;-75
2023/10/25 04:28:31;;;;;;;;;2.33;1.00;;;;;14.14;100.00;98783.34;4954937;28;45463;-76
2023/10/25 04:30:56;;;;;;;;;1.00;1.00;;;;;14.16;100.00;98780.31;4954785;28;46224;-71
2023/10/25 04:33:22;;;;;;;;;1.00;1.00;;;;;14.20;100.00;98781.41;4954695;28;45312;-74
2023/10/25 04:35:47;;;;;;;;;1.67;1.00;;;;;14.20;100.00;98773.97;4953848;28;45754;-69
2023/10/25 04:38:13;;;;;;;;;0.67;0.67;;;;;14.23;100.00;98765.13;4953842;28;45795;-71
2023/10/25 04:40:38;;;;;;;;;1.00;1.00;;;;;14.25;100.00;98764.84;4954527;28;47446;-77
2023/10/25 04:43:03;;;;;;;;;1.00;1.00;;;;;14.26;100.00;98758.22;4954076;28;45419;-71
2023/10/25 04:45:29;;;;;;;;;0.00;0.00;;;;;14.24;100.00;98746.66;4954411;28;45647;-74
2023/10/25 04:47:55;;;;;;;;;1.00;1.00;;;;;14.19;100.00;98757.69;4953732;28;45779;-73
2023/10/25 04:50:21;;;;;;;;;3.00;0.33;;;;;14.15;100.00;98740.91;4953744;28;45847;-71
2023/10/25 04:52:47;;;;;;;;;0.00;0.00;;;;;14.19;100.00;98755.78;4953773;28;45709;-70
2023/10/25 04:55:13;;;;;;;;;1.00;1.00;;;;;14.14;100.00;98750.28;4953824;28;45656;-72
2023/10/25 04:57:39;;;;;;;;;0.67;0.67;;;;;14.19;100.00;98753.03;4948498;28;45917;-73
2023/10/25 05:00:09;;;;;;;;;2.33;2.00;;;;;14.21;100.00;98753.56;4953252;28;45852;-71
2023/10/25 05:02:38;;;;;;;;;1.00;1.00;;;;;14.20;100.00;98756.59;4951062;28;45732;-71
2023/10/25 05:05:08;;;;;;;;;1.00;1.00;;;;;14.16;100.00;98747.25;4954352;28;45400;-70
2023/10/25 05:07:35;;;;;;;;;1.00;0.00;;;;;14.16;100.00;98748.09;4954962;28;45804;-71
2023/10/25 05:10:00;;;;;;;;;1.00;1.00;;;;;14.14;100.00;98742.00;4946640;28;49214;-72
2023/10/25 05:12:37;;;;;;;;;2.00;2.00;;;;;14.22;100.00;98749.72;4940960;28;45939;-74
2023/10/25 05:15:03;;;;;;;;;0.00;0.00;;;;;14.26;100.00;98749.97;4952495;28;45963;-74
2023/10/25 05:17:29;;;;;;;;;1.00;1.00;;;;;14.35;100.00;98750.19;4952932;28;45376;-71
2023/10/25 05:19:54;;;;;;;;;1.00;1.00;;;;;14.33;100.00;98752.44;4959773;28;46216;-70
2023/10/25 05:22:25;;;;;;;;;1.00;1.00;;;;;14.30;100.00;98738.06;4957936;28;45448;-70
2023/10/25 05:24:51;;;;;;;;;1.00;1.00;;;;;14.19;100.00;98719.94;4949274;28;45876;-72
2023/10/25 05:27:17;;;;;;;;;1.00;1.00;;;;;14.38;100.00;98744.13;4941533;28;45796;-72
2023/10/25 05:29:42;;;;;;;;;1.00;1.00;;;;;14.42;100.00;98746.03;4940050;28;46020;-73
2023/10/25 05:32:14;;;;;;;;;1.33;1.33;;;;;14.46;100.00;98746.25;4934857;28;45762;-74
2023/10/25 05:34:40;;;;;;;;;1.00;1.00;;;;;14.52;100.00;98739.63;4947272;28;45494;-73
2023/10/25 05:37:09;;;;;;;;;4.00;2.67;;;;;14.57;100.00;98752.56;4948072;28;45641;-74
2023/10/25 05:39:35;;;;;;;;;1.00;1.00;;;;;14.58;100.00;98743.16;4945956;28;46093;-73
2023/10/25 05:42:05;;;;;;;;;2.33;2.33;;;;;14.65;100.00;98735.44;4940849;28;45521;-70
2023/10/25 05:44:31;;;;;;;;;1.00;1.00;;;;;14.67;100.00;98740.66;4932138;28;45968;-73
2023/10/25 05:46:57;;;;;;;;;0.00;0.00;;;;;14.76;100.00;98742.56;4943998;28;45466;-74
2023/10/25 05:49:22;;;;;;;;;3.00;1.67;;;;;14.83;100.00;98744.97;4947913;28;45468;-72
2023/10/25 05:51:48;;;;;;;;;2.00;1.33;;;;;14.88;100.00;98733.91;4940437;28;45764;-73
2023/10/25 05:54:14;;;;;;;;;3.00;2.67;;;;;14.97;100.00;98734.09;4950919;28;45824;-74
2023/10/25 05:56:39;;;;;;;;;1.00;1.00;;;;;15.12;100.00;98742.28;4950924;28;46413;-74
2023/10/25 05:59:05;;;;;;;;;1.00;0.00;;;;;15.10;100.00;98738.97;4940833;28;46512;-74
2023/10/25 06:01:47;;;;;;;;;3.00;2.00;;;;;15.13;100.00;98732.06;4916881;28;45884;-73
2023/10/25 06:04:14;;;;;;;;;1.00;1.00;;;;;15.20;100.00;98738.06;4940017;28;46038;-71
2023/10/25 06:06:42;;;;;;;;;1.00;0.00;;;;;15.23;100.00;98743.03;4924914;28;45903;-76
2023/10/25 06:09:08;;;;;;;;;1.00;1.00;;;;;15.23;100.00;98729.22;4943617;28;45589;-77
2023/10/25 06:11:34;;;;;;;;;2.00;2.00;;;;;15.36;100.00;98739.59;4922063;28;45793;-75
2023/10/25 06:14:00;;;;;;;;;1.00;1.00;;;;;15.42;100.00;98734.00;4937309;28;45514;-75
2023/10/25 06:16:25;;;;;;;;;2.33;1.67;;;;;15.36;100.00;98728.53;4938436;28;47339;-72
2023/10/25 06:18:51;;;;;;;;;0.00;0.00;;;;;15.57;100.00;98752.38;4950649;28;46617;-72
2023/10/25 06:21:16;;;;;;;;;6.00;1.33;;;;;15.70;100.00;98749.78;4940998;28;45438;-72
2023/10/25 06:23:41;;;;;;;;;1.00;1.00;;;;;15.79;100.00;98746.38;4928423;28;45912;-74
2023/10/25 06:26:07;;;;;;;;;3.00;1.33;;;;;15.97;100.00;98742.88;4928719;28;45367;-72
2023/10/25 06:28:33;;;;;;;;;0.00;0.00;;;;;16.02;100.00;98753.88;4948276;28;45459;-73
2023/10/25 06:30:58;;;;;;;;;1.67;0.67;;;;;16.06;100.00;98740.28;4950844;28;45638;-73
2023/10/25 06:33:25;;;;;;;;;2.00;1.00;;;;;16.15;100.00;98754.28;4932323;28;45873;-75
2023/10/25 06:35:50;;;;;;;;;2.00;1.00;;;;;16.23;100.00;98756.41;4936716;28;45858;-75
2023/10/25 06:38:16;;;;;;;;;2.00;2.00;;;;;16.28;100.00;98766.59;4941397;28;46226;-74
2023/10/25 06:40:41;;;;;;;;;1.00;1.00;;;;;16.32;100.00;98765.69;4942511;28;45806;-76
2023/10/25 06:43:07;;;;;;;;;1.00;1.00;;;;;16.37;100.00;98778.63;4945037;28;45929;-74
2023/10/25 06:45:33;;;;;;;;;1.67;1.67;;;;;16.41;100.00;98783.28;4944708;28;45537;-75
2023/10/25 06:48:00;;;;;;;;;1.00;1.00;;;;;16.52;100.00;98777.63;4942435;28;46122;-74
2023/10/25 06:50:26;;;;;;;;;1.67;1.00;;;;;16.44;100.00;98781.03;4944279;28;46150;-73
2023/10/25 06:52:53;;;;;;;;;2.67;1.00;;;;;16.48;100.00;98782.94;4942854;28;45355;-75
2023/10/25 06:55:18;;;;;;;;;1.00;1.00;;;;;16.41;100.00;98794.34;4926082;28;45824;-74
2023/10/25 06:57:44;;;;;;;;;1.00;1.00;;;;;16.44;100.00;98794.84;4935820;28;48007;-72
2023/10/25 07:00:10;;;;;;;;;1.67;1.67;;;;;16.44;100.00;98786.56;4928742;28;45706;-71
2023/10/25 07:02:53;;;;;;;;;0.00;0.00;;;;;16.49;100.00;98797.56;4941817;28;45514;-75
2023/10/25 07:05:21;;;;;;;;;0.25;0.25;;;;;16.47;100.00;98802.59;4941854;28;45695;-75
2023/10/25 07:07:52;;;;;;;;;0.75;0.00;;;;;16.39;100.00;98804.88;4948491;28;47104;-74
2023/10/25 07:10:19;;;;;;;;;0.67;0.67;;;;;16.38;100.00;98802.41;4954249;28;45725;-74
2023/10/25 07:12:45;;;;;;;;;1.00;0.00;;;;;16.41;100.00;98805.41;4940405;28;45529;-73
2023/10/25 07:15:11;;;;;;;;;0.00;0.00;;;;;16.37;100.00;98800.75;4937965;28;45653;-74
2023/10/25 07:17:37;;;;;;;;;0.00;0.00;;;;;16.38;100.00;98816.25;4928477;28;46916;-73
2023/10/25 07:20:07;;;;;;;;;0.00;0.00;;;;;16.38;100.00;98810.72;4926736;28;45513;-73
2023/10/25 07:22:32;;;;;;;;;0.00;0.00;;;;;16.36;100.00;98810.16;4930305;28;45600;-73
2023/10/25 07:24:58;;;;;;;;;0.00;0.00;;;;;16.40;100.00;98811.25;4949591;28;45787;-73
2023/10/25 07:27:24;;;;;;;;;1.00;0.33;;;;;16.44;100.00;98815.06;4929111;28;45562;-73
2023/10/25 07:29:49;;;;;;;;;0.00;0.00;;;;;16.49;100.00;98816.94;4945801;28;45734;-76
2023/10/25 07:32:18;;;;;;;;;0.00;0.00;;;;;16.55;100.00;98807.47;4939318;28;45722;-75
2023/10/25 07:34:44;;;;;;;;;1.00;1.00;;;;;16.74;100.00;98810.25;4936781;28;46146;-76
2023/10/25 07:37:09;;;;;;;;;0.33;0.33;;;;;16.77;100.00;98816.00;4942837;28;46145;-76
2023/10/25 07:40:20;;;;;;;;;0.00;0.00;;;;;16.82;100.00;98826.19;4945653;28;45662;-75
2023/10/25 07:42:49;;;;;;;;;0.00;0.00;;;;;16.72;100.00;98809.72;4944695;28;45569;-76
2023/10/25 07:45:14;;;;;;;;;0.00;0.00;;;;;16.87;100.00;98828.94;4942850;28;45615;-76
2023/10/25 07:47:43;;;;;;;;;0.00;0.00;;;;;16.86;100.00;98823.66;4933024;28;47412;-73
2023/10/25 07:50:09;;;;;;;;;0.00;0.00;;;;;16.91;100.00;98827.19;4936075;28;45694;-74
2023/10/25 07:52:35;;;;;;;;;0.00;0.00;;;;;16.94;100.00;98818.28;4941247;28;45383;-76
2023/10/25 07:55:03;;;;;;;;;0.00;0.00;;;;;17.10;100.00;98827.22;4936000;28;45840;-74
2023/10/25 07:57:33;;;;;;;;;0.00;0.00;;;;;17.16;100.00;98829.94;4934709;28;46356;-74
2023/10/25 08:00:05;;;;;;;;;0.67;0.67;;;;;17.14;100.00;98830.22;4946555;28;45797;-75
2023/10/25 08:02:30;;;;;;;;;1.00;1.00;;;;;17.07;100.00;98827.00;4941722;28;45973;-77
2023/10/25 08:04:55;;;;;;;;;0.00;0.00;;;;;17.17;100.00;98848.16;4943105;28;45487;-76
2023/10/25 08:07:21;;;;;;;;;0.75;0.75;;;;;17.13;100.00;98853.50;4930759;28;45899;-76
2023/10/25 08:09:47;;;;;;;;;2.67;0.00;;;;;17.14;100.00;98846.00;4939353;28;45478;-76
2023/10/25 08:12:12;;;;;;;;;1.50;1.00;;;;;17.16;100.00;98846.53;4950455;28;45682;-78
2023/10/25 08:14:38;;;;;;;;;0.33;0.33;;;;;17.10;100.00;98835.53;4936692;28;45658;-74
2023/10/25 08:17:06;;;;;;;;;3.00;1.00;;;;;17.17;100.00;98839.88;4939120;28;46355;-74
2023/10/25 08:19:31;;;;;;;;;1.00;1.00;;;;;17.25;100.00;98839.19;4915619;28;46186;-75
2023/10/25 08:21:56;;;;;;;;;2.67;2.67;;;;;17.31;100.00;98849.06;4936569;28;45639;-76
2023/10/25 08:24:24;;;;;;;;;2.67;2.67;;;;;17.37;100.00;98847.06;4940320;28;45741;-83
2023/10/25 08:26:52;;;;;;;;;5.00;3.00;;;;;17.35;100.00;98844.59;4952363;28;45998;-82
2023/10/25 08:29:17;;;;;;;;;2.00;2.00;;;;;17.33;100.00;98852.34;4952251;28;45489;-83
2023/10/25 08:31:47;;;;;;;;;4.00;4.00;;;;;17.47;100.00;98858.00;4942951;28;45398;-78
2023/10/25 08:34:13;;;;;;;;;1.00;1.00;;;;;17.40;100.00;98852.81;4948099;28;45707;-80
2023/10/25 08:36:38;;;;;;;;;3.00;1.00;;;;;17.43;100.00;98854.16;4939742;28;47019;-80
2023/10/25 08:39:04;;;;;;;;;0.00;0.00;;;;;17.46;100.00;98862.69;4954577;28;45527;-78
2023/10/25 08:41:30;;;;;;;;;2.33;1.67;;;;;17.44;100.00;98870.50;4950848;28;45837;-78
2023/10/25 08:43:57;;;;;;;;;2.00;1.00;;;;;17.33;100.00;98863.44;4955524;28;45507;-79
2023/10/25 08:46:24;;;;;;;;;0.00;0.00;;;;;17.30;100.00;98855.72;4941462;28;46563;-77
2023/10/25 08:48:53;;;;;;;;;0.00;0.00;;;;;17.27;100.00;98859.09;4930879;28;45432;-80
2023/10/25 08:51:19;;;;;;;;;1.00;1.00;;;;;17.31;100.00;98860.16;4957073;28;45962;-77
2023/10/25 08:53:45;;;;;;;;;1.00;1.00;;;;;17.28;100.00;98860.75;4944544;28;45948;-79
2023/10/25 08:56:11;;;;;;;;;0.33;0.00;;;;;17.29;100.00;98857.69;4935927;28;45701;-80
2023/10/25 08:58:36;;;;;;;;;0.00;0.00;;;;;17.37;100.00;98858.97;4949057;28;45828;-80
2023/10/25 09:01:02;;;;;;;;;0.00;0.00;;;;;17.38;100.00;98857.84;4957490;28;45680;-81
2023/10/25 09:03:38;;;;;;;;;0.00;0.00;;;;;17.49;100.00;98869.59;4973760;28;45681;-81
2023/10/25 09:06:05;;;;;;;;;0.67;0.67;;;;;17.47;100.00;98858.00;4951864;28;46660;-83
2023/10/25 09:08:32;;;;;;;;;1.00;1.00;;;;;17.53;100.00;98864.25;4955736;28;45742;-76
2023/10/25 09:11:04;;;;;;;;;0.00;0.00;;;;;17.52;100.00;98865.41;4947891;28;45515;-77
2023/10/25 09:13:32;;;;;;;;;2.00;1.00;;;;;17.53;100.00;98864.25;4944382;28;46325;-77
2023/10/25 09:16:17;;;;;;;;;0.75;0.75;;;;;17.53;100.00;98861.47;4937171;28;47108;-77
2023/10/25 09:18:43;;;;;;;;;0.50;0.25;;;;;17.43;100.00;98860.53;4948563;28;45930;-79
2023/10/25 09:21:11;;;;;;;;;1.00;1.00;;;;;17.48;100.00;98867.94;4947196;28;45599;-78
2023/10/25 09:23:37;;;;;;;;;0.67;0.00;;;;;17.49;100.00;98871.53;4945354;28;45834;-76
2023/10/25 09:26:14;;;;;;;;;1.00;1.00;;;;;17.52;100.00;98859.84;4953714;28;46582;-79
2023/10/25 09:28:40;;;;;;;;;1.00;1.00;;;;;17.51;100.00;98860.97;4935079;28;45510;-77
2023/10/25 09:31:20;;;;;;;;;0.00;0.00;;;;;17.55;100.00;98859.25;4943590;28;45761;-77
2023/10/25 09:33:47;;;;;;;;;1.00;1.00;;;;;17.51;100.00;98858.19;4951407;28;45563;-79
2023/10/25 09:36:13;;;;;;;;;0.00;0.00;;;;;17.59;100.00;98858.34;4937086;28;45807;-78
2023/10/25 09:38:38;;;;;;;;;0.75;0.75;;;;;17.57;100.00;98849.47;4945504;28;45725;-76
2023/10/25 09:41:08;;;;;;;;;1.00;1.00;;;;;17.51;100.00;98847.91;4939483;28;45500;-77
2023/10/25 09:43:37;;;;;;;;;1.00;1.00;;;;;17.60;100.00;98850.84;4921934;28;45354;-76
2023/10/25 09:46:07;;;;;;;;;0.25;0.25;;;;;17.64;100.00;98851.88;4937415;28;46109;-78
2023/10/25 09:48:36;;;;;;;;;1.50;0.25;;;;;17.63;100.00;98861.31;4935317;28;45451;-79
2023/10/25 09:51:20;;;;;;;;;1.00;1.00;;;;;17.63;100.00;98856.63;4940983;28;45388;-77
2023/10/25 09:54:14;;;;;;;;;2.50;1.00;;;;;17.62;100.00;98854.16;4939781;28;45555;-75
2023/10/25 09:56:40;;;;;;;;;1.00;1.00;;;;;17.61;100.00;98860.81;4944507;28;46239;-75
2023/10/25 09:59:11;;;;;;;;;1.00;1.00;;;;;17.57;100.00;98860.56;4935185;28;45835;-77
2023/10/25 10:01:41;;;;;;;;;1.25;0.50;;;;;17.53;100.00;98872.56;4933560;28;45884;-77
2023/10/25 10:04:17;;;;;;;;;1.00;1.00;;;;;17.42;100.00;98856.09;4940561;28;45410;-75
2023/10/25 10:07:21;;;;;;;;;1.33;1.33;;;;;17.46;100.00;98862.69;4944494;28;45882;-77
2023/10/25 10:10:25;;;;;;;;;1.00;1.00;;;;;17.50;100.00;98862.94;4871565;29;45869;-78
2023/10/25 10:12:50;;;;;;;;;2.00;1.00;;;;;17.60;100.00;98861.91;4854529;29;45462;-73
2023/10/25 10:15:16;;;;;;;;;3.00;1.50;;;;;17.72;100.00;98845.63;4918804;28;45927;-76
2023/10/25 10:17:43;;;;;;;;;1.00;1.00;;;;;18.02;100.00;98853.75;4937120;28;45427;-78
2023/10/25 10:20:27;;;;;;;;;3.00;1.00;;;;;18.32;100.00;98850.44;4945431;28;45772;-78
2023/10/25 10:23:02;;;;;;;;;5.25;3.00;;;;;18.75;100.00;98859.56;4941761;28;45551;-80
2023/10/25 10:25:50;;;;;;;;;4.00;3.00;;;;;18.96;100.00;98848.88;4933193;28;45468;-79
2023/10/25 10:28:16;;;;;;;;;2.00;2.00;;;;;19.14;100.00;98852.66;4934339;28;45633;-82
2023/10/25 10:30:42;;;;;;;;;2.67;2.67;;;;;19.18;100.00;98857.25;4943543;28;45743;-81
2023/10/25 10:33:10;;;;;;;;;4.67;4.67;;;;;19.20;100.00;98860.53;4929713;28;45449;-82
2023/10/25 10:35:44;;;;;;;;;3.50;3.00;;;;;19.15;100.00;98846.78;4941664;28;45807;-78
2023/10/25 10:38:10;;;;;;;;;3.75;2.50;;;;;19.27;100.00;98850.97;4941386;28;46143;-80
2023/10/25 10:40:36;;;;;;;;;4.00;2.00;;;;;19.35;100.00;98862.16;4944091;28;45457;-81
2023/10/25 10:43:02;;;;;;;;;3.50;3.50;;;;;19.20;100.00;98857.75;4948593;28;45436;-79
2023/10/25 10:45:29;;;;;;;;;1.00;1.00;;;;;19.05;100.00;98863.66;4945095;28;46331;-75
2023/10/25 10:48:11;;;;;;;;;2.00;2.00;;;;;18.82;100.00;98860.78;4937437;28;46358;-77
2023/10/25 10:50:39;;;;;;;;;1.75;1.75;;;;;18.61;100.00;98863.19;4947806;28;45563;-79
2023/10/25 10:53:04;;;;;;;;;2.25;1.75;;;;;18.56;100.00;98862.44;4948545;28;45741;-79
2023/10/25 10:55:30;;;;;;;;;1.00;1.00;;;;;18.41;100.00;98858.84;4950784;28;45646;-82
2023/10/25 10:57:55;;;;;;;;;1.25;1.25;;;;;18.31;100.00;98854.31;4948839;28;45570;-81
2023/10/25 11:00:21;;;;;;;;;0.75;0.75;;;;;18.24;100.00;98861.41;4943798;28;45675;-81
2023/10/25 11:02:47;;;;;;;;;3.00;1.00;;;;;18.15;100.00;98864.88;4946400;28;45261;-82
2023/10/25 11:05:15;;;;;;;;;1.75;1.75;;;;;18.09;100.00;98870.84;4935423;28;45770;-79
2023/10/25 11:07:40;;;;;;;;;2.00;2.00;;;;;17.95;100.00;98868.84;4948361;28;45498;-81
2023/10/25 11:10:06;;;;;;;;;1.67;1.67;;;;;17.79;100.00;98864.66;4920899;28;45363;-81
2023/10/25 11:12:32;;;;;;;;;0.67;0.67;;;;;17.58;100.00;98861.41;4942145;28;45550;-82
2023/10/25 11:15:02;;;;;;;;;2.00;2.00;;;;;17.53;100.00;98872.56;4948614;28;45739;-79
2023/10/25 11:17:27;;;;;;;;;2.25;0.50;;;;;17.40;100.00;98874.16;4922806;28;46913;-81
2023/10/25 11:19:52;;;;;;;;;2.00;1.00;;;;;17.35;100.00;98869.53;4941243;28;45404;-79
2023/10/25 11:22:18;;;;;;;;;1.00;1.00;;;;;17.42;100.00;98872.72;4944992;28;45523;-81
2023/10/25 11:24:48;;;;;;;;;1.00;1.00;;;;;17.51;100.00;98863.75;4944633;28;45491;-80
2023/10/25 11:27:13;;;;;;;;;3.00;1.00;;;;;17.63;100.00;98858.53;4946684;28;45546;-79